Detall de PIREP

Printer-friendly versionPDF version

[2012/05/01 08:08:00]
Flight IATA:CT0001
Pilot Number:042
Company ICAO:CAT
Aircraft Type:F70/A
PAX:3
Aircraft Registration:PFJ
Departing Airport: LEMH
Destination Airport: LEIB
Alternate Airport:LEPA
Online: VATSIM
Route:MJV
Flight Level:F210
No Slew and time accel
No pause
Crash detect
Detect pilot in Cockpit between each 30 and 45 minutes
08:08 Zero fuel Weight: 72667 Lbs, Fuel Weight: 22680 Lbs
08:08 VATSIM:LEMH 010730Z 20003KT 140V250 9999 FEW018 16/11 Q1017
08:08 VATSIM:LEIB 010730Z VRB01KT CAVOK 17/10 Q1016 NOSIG
08:08 VOICE CATALONIAN
08:13 Parking Brakes off
08:18 Take-off
08:18 Take off Weight: 94939 Lbs
08:18 Wind: 193º @ 005 Knots Heading: 008º
08:18 POS N39º 52´ 03´´ E004º 13´ 10´´
08:18 Gear Up: 157 Knots
08:18 Flaps:2 at 157 Knots
08:19 Flaps:1 at 188 Knots
08:19 Flaps:0 at 191 Knots
08:27 TOC
08:27 Fuel Weight: 20875 Lb
08:33 Wind:249º@004 Knots Heading: 281º Ground Speed: 418 Knots Altitude 20875 ft
08:33 TOD
08:33 Fuel Weight: 20356 Lb
08:48 Wind:210º@009 Knots Heading: 242º Ground Speed: 195 Knots Altitude 2723 ft
08:49 Flaps:1 at 175 Knots
08:49 Flaps:2 at 175 Knots
08:49 Gear Down: 165 Knots
08:50 Flaps:3 at 162 Knots
08:51 Flaps:4 at 139 Knots
08:51 Flaps:3 at 138 Knots
08:53 TouchDown:Rate -242 ft/min Speed: 119 Knots
08:53 VATSIM:LEIB 010830Z 21006KT 170V240 9999 FEW025 18/10 Q1017 NOSIG
08:53 Land
08:53 Wind:237º@006 Knots
08:53 Heading: 241º
08:53 Flight Duration: 00:35
08:53 Landing Weight: 92180 Lbs
08:53 POS N38º 52´ 18´´ E001º 22´ 14´´
09:00 Parking brakes on
09:00 Block to Block Duration: 00:47
09:00 Final Fuel: 19188 Lbls
09:00 Spent Fuel: 3492 Lbls
09:00 Flight Length: 162 NM
09:00 TOD Land Length: 82 NM

Exportar CSV

Powered by Drupal - Modified by Danger4k